Time;durP1;ratioP1;P1;durP2;ratioP2;P2;SDS_P1;SDS_P2;PMS_P1;PMS_P2;Temp;Humidity;BMP_temperature;BMP_pressure;BME280_temperature;BME280_humidity;BME280_pressure;Samples;Min_cycle;Max_cycle;Signal;HPM_P1;HPM_P2
2022/09/14 00:00:26;;;;;;;6.60;2.40;;;;;;;15.69;nan;100818.13;5033105;28;20038;-61
2022/09/14 00:02:51;;;;;;;5.00;2.08;;;;;;;15.53;nan;100796.84;5033189;28;20374;-63
2022/09/14 00:05:17;;;;;;;5.05;2.33;;;;;;;15.33;nan;100759.88;5048141;28;20121;-62
2022/09/14 00:07:42;;;;;;;6.45;1.98;;;;;;;15.55;nan;100800.31;5033241;28;20112;-62
2022/09/14 00:10:08;;;;;;;5.50;2.15;;;;;;;15.42;nan;100783.28;5033143;28;20088;-60
2022/09/14 00:12:34;;;;;;;2.20;1.90;;;;;;;15.35;nan;100792.50;5032765;28;20040;-61
2022/09/14 00:14:59;;;;;;;3.67;2.10;;;;;;;15.41;nan;100793.97;5031176;28;20026;-61
2022/09/14 00:17:25;;;;;;;3.92;1.73;;;;;;;15.38;nan;100792.31;5032885;28;20040;-63
2022/09/14 00:19:52;;;;;;;4.18;2.22;;;;;;;15.29;nan;100784.88;5031567;28;20389;-62
2022/09/14 00:22:17;;;;;;;5.53;2.15;;;;;;;15.35;nan;100795.16;5048173;28;20033;-63
2022/09/14 00:24:42;;;;;;;8.20;2.17;;;;;;;15.31;nan;100785.66;5032700;28;20127;-63
2022/09/14 00:27:09;;;;;;;5.45;2.20;;;;;;;15.31;nan;100795.38;5048045;28;20109;-62
2022/09/14 00:29:34;;;;;;;5.60;2.65;;;;;;;15.25;nan;100790.41;5031288;28;20033;-62
2022/09/14 00:31:59;;;;;;;5.20;2.50;;;;;;;15.27;nan;100789.38;5033047;28;20396;-61
2022/09/14 00:34:26;;;;;;;6.88;2.40;;;;;;;15.22;nan;100783.47;5032421;28;20128;-63
2022/09/14 00:36:51;;;;;;;7.40;2.80;;;;;;;15.07;nan;100752.44;5032645;28;20037;-61
2022/09/14 00:39:19;;;;;;;4.45;2.47;;;;;;;15.28;nan;100777.84;5032715;28;20033;-63
2022/09/14 00:41:46;;;;;;;8.65;2.97;;;;;;;15.26;nan;100766.47;5032605;28;20224;-62
2022/09/14 00:44:12;;;;;;;5.15;2.15;;;;;;;15.25;nan;100782.44;5047610;28;20065;-60
2022/09/14 00:46:45;;;;;;;5.28;2.75;;;;;;;15.02;nan;100747.41;5032435;28;20069;-62
2022/09/14 00:49:14;;;;;;;5.57;2.20;;;;;;;15.10;nan;100757.59;5032287;28;20028;-62
2022/09/14 00:52:08;;;;;;;6.25;2.75;;;;;;;15.16;nan;100758.13;5048047;28;20033;-62
2022/09/14 00:54:39;;;;;;;5.03;2.78;;;;;;;15.18;nan;100755.38;5032267;28;20049;-62
2022/09/14 00:57:05;;;;;;;8.30;2.45;;;;;;;15.14;nan;100748.56;5047683;28;20468;-63
2022/09/14 00:59:34;;;;;;;6.53;2.28;;;;;;;15.20;nan;100737.63;5047413;28;20021;-62
2022/09/14 01:01:59;;;;;;;5.97;2.63;;;;;;;14.93;nan;100697.53;5032237;28;20397;-62
2022/09/14 01:04:25;;;;;;;5.43;2.25;;;;;;;14.80;nan;100661.97;5032216;28;20047;-62
2022/09/14 01:07:29;;;;;;;4.20;2.10;;;;;;;15.25;nan;100742.69;5032379;28;20034;-62
2022/09/14 01:10:14;;;;;;;3.65;2.25;;;;;;;15.24;nan;100731.19;5030850;28;20060;-62
2022/09/14 01:12:57;;;;;;;6.15;2.58;;;;;;;15.28;nan;100724.81;5032229;28;20347;-62
2022/09/14 01:15:25;;;;;;;8.95;2.45;;;;;;;15.30;nan;100717.63;5032146;28;20038;-61
2022/09/14 01:17:58;;;;;;;4.32;2.67;;;;;;;15.18;nan;100700.56;5032129;28;20120;-61
2022/09/14 01:20:34;;;;;;;4.38;2.42;;;;;;;15.28;nan;100724.81;5031848;28;20038;-63
2022/09/14 01:23:37;;;;;;;5.80;2.47;;;;;;;15.26;nan;100710.78;5032081;28;20040;-63
2022/09/14 01:26:26;;;;;;;3.30;2.30;;;;;;;15.23;nan;100702.13;5032062;28;20620;-61
2022/09/14 01:29:22;;;;;;;7.15;2.45;;;;;;;14.91;nan;100645.53;5036166;28;20061;-62
2022/09/14 01:31:54;;;;;;;8.18;2.95;;;;;;;15.27;nan;100701.88;5019727;28;20080;-61
2022/09/14 01:34:19;;;;;;;3.78;2.33;;;;;;;15.28;nan;100708.03;5051359;28;20040;-62
2022/09/14 01:36:50;;;;;;;4.72;3.53;;;;;;;15.28;nan;100697.44;5035790;28;20408;-62
2022/09/14 01:39:17;;;;;;;3.92;2.40;;;;;;;15.28;nan;100700.09;5051287;28;20041;-63
2022/09/14 01:41:42;;;;;;;5.38;2.88;;;;;;;15.11;nan;100675.34;5050768;28;20604;-61
2022/09/14 01:44:31;;;;;;;6.38;3.13;;;;;;;15.13;nan;100672.59;5050866;28;20120;-62
2022/09/14 01:47:02;;;;;;;4.32;2.85;;;;;;;15.15;nan;100683.97;5033937;28;20061;-61
2022/09/14 01:49:40;;;;;;;6.72;2.80;;;;;;;15.25;nan;100694.94;5034184;28;20045;-61
2022/09/14 01:52:27;;;;;;;5.30;3.15;;;;;;;15.27;nan;100693.91;5051199;28;20033;-61
2022/09/14 01:55:24;;;;;;;9.68;2.83;;;;;;;15.29;nan;100692.06;5035613;28;20040;-63
2022/09/14 01:57:53;;;;;;;6.55;2.72;;;;;;;15.28;nan;100681.53;5029634;28;20045;-61
2022/09/14 02:00:20;;;;;;;6.65;2.72;;;;;;;14.81;nan;100617.78;5050788;28;20080;-63
2022/09/14 02:02:51;;;;;;;5.97;2.70;;;;;;;15.23;nan;100694.19;5050746;28;20033;-62
2022/09/14 02:05:22;;;;;;;;;;;;;;;15.23;nan;100690.56;5035672;28;20026;-61
2022/09/14 02:07:47;;;;;;;6.15;2.78;;;;;;;15.20;nan;100685.47;5035330;28;19916;-62
2022/09/14 02:10:14;;;;;;;4.03;2.53;;;;;;;15.20;nan;100674.00;5033836;28;20481;-61
2022/09/14 02:12:40;;;;;;;6.35;2.63;;;;;;;14.88;nan;100612.09;5050246;28;20091;-63
2022/09/14 02:15:07;;;;;;;6.85;2.60;;;;;;;14.68;nan;100585.81;5050733;28;20034;-61
2022/09/14 02:17:32;;;;;;;3.63;2.28;;;;;;;14.86;nan;100621.06;5050528;28;20043;-61
2022/09/14 02:20:00;;;;;;;4.78;2.58;;;;;;;15.19;nan;100681.09;5035226;28;20033;-62
2022/09/14 02:22:27;;;;;;;6.00;2.00;;;;;;;15.18;nan;100666.09;5034036;28;20435;-62
2022/09/14 02:24:52;;;;;;;6.70;3.13;;;;;;;15.21;nan;100675.69;5050403;28;20044;-63
2022/09/14 02:27:18;;;;;;;6.05;2.45;;;;;;;14.89;nan;100618.25;5034791;28;20037;-64
2022/09/14 02:29:44;;;;;;;2.97;2.20;;;;;;;15.23;nan;100676.47;5034806;28;20432;-63
2022/09/14 02:32:17;;;;;;;3.47;2.25;;;;;;;14.84;nan;100607.91;5050372;28;20037;-61
2022/09/14 02:34:55;;;;;;;8.80;2.47;;;;;;;15.21;nan;100673.91;5049972;28;20033;-65
2022/09/14 02:37:55;;;;;;;5.15;2.47;;;;;;;15.22;nan;100661.50;5034271;28;20038;-62
2022/09/14 02:40:23;;;;;;;6.63;2.10;;;;;;;15.23;nan;100649.97;5033699;28;20069;-61
2022/09/14 02:42:58;;;;;;;5.68;2.45;;;;;;;15.21;nan;100659.78;5034912;28;20041;-63
2022/09/14 02:46:00;;;;;;;5.57;2.42;;;;;;;15.21;nan;100647.38;5034654;28;20022;-62
2022/09/14 02:48:50;;;;;;;4.88;2.25;;;;;;;15.16;nan;100633.53;5034662;28;20037;-62
2022/09/14 02:51:16;;;;;;;5.45;2.40;;;;;;;15.19;nan;100661.66;5034217;28;20041;-62
2022/09/14 02:53:47;;;;;;;4.03;2.05;;;;;;;15.09;nan;100618.88;5034471;28;20036;-64
2022/09/14 02:56:12;;;;;;;8.30;2.20;;;;;;;15.18;nan;100642.25;5049899;28;20041;-62
2022/09/14 02:58:43;;;;;;;3.05;2.00;;;;;;;15.16;nan;100622.91;5049687;28;20393;-63
2022/09/14 03:01:12;;;;;;;5.95;2.20;;;;;;;14.88;nan;100580.31;5049978;28;20037;-61
2022/09/14 03:03:37;;;;;;;8.63;2.42;;;;;;;15.15;nan;100615.91;5034397;28;20033;-62
2022/09/14 03:06:03;;;;;;;5.72;2.03;;;;;;;15.20;nan;100619.19;5034415;28;20034;-63
2022/09/14 03:08:28;;;;;;;3.72;2.00;;;;;;;15.21;nan;100635.91;5034661;28;20034;-61
2022/09/14 03:10:54;;;;;;;5.97;2.83;;;;;;;15.14;nan;100616.00;5032837;28;20424;-61
2022/09/14 03:13:19;;;;;;;5.53;1.95;;;;;;;14.92;nan;100573.03;5032808;28;20038;-61
2022/09/14 03:15:45;;;;;;;2.50;1.90;;;;;;;15.09;nan;100602.16;5034259;28;20052;-63
2022/09/14 03:18:10;;;;;;;5.55;2.28;;;;;;;15.19;nan;100619.25;5034229;28;20061;-63
2022/09/14 03:20:36;;;;;;;6.63;2.25;;;;;;;14.92;nan;100562.41;5034050;28;20037;-61
2022/09/14 03:23:03;;;;;;;10.48;2.33;;;;;;;15.23;nan;100607.53;5033941;28;20511;-64
2022/09/14 03:25:29;;;;;;;5.85;2.30;;;;;;;14.87;nan;100543.28;5033714;28;20377;-63
2022/09/14 03:27:57;;;;;;;4.45;2.03;;;;;;;15.19;nan;100616.59;5033991;28;20031;-65
2022/09/14 03:30:23;;;;;;;5.35;2.53;;;;;;;15.05;nan;100579.38;5049166;28;20488;-64
2022/09/14 03:32:48;;;;;;;5.75;2.88;;;;;;;15.04;nan;100573.22;5032387;28;20063;-64
2022/09/14 03:35:14;;;;;;;5.80;2.80;;;;;;;14.82;nan;100540.03;5049086;28;20041;-63
2022/09/14 03:37:40;;;;;;;4.25;2.40;;;;;;;15.15;nan;100601.78;5033552;28;20029;-61
2022/09/14 03:40:08;;;;;;;3.90;2.25;;;;;;;14.75;nan;100530.69;5033486;28;20037;-62
2022/09/14 03:42:33;;;;;;;5.47;3.08;;;;;;;14.81;nan;100536.50;5033637;28;20037;-62
2022/09/14 03:44:59;;;;;;;4.30;2.30;;;;;;;14.81;nan;100539.16;5033729;28;20036;-61
2022/09/14 03:47:25;;;;;;;5.93;2.22;;;;;;;15.16;nan;100587.59;5033600;28;20040;-62
2022/09/14 03:49:50;;;;;;;4.75;2.35;;;;;;;15.18;nan;100583.06;5032700;28;20037;-62
2022/09/14 03:52:15;;;;;;;5.32;2.00;;;;;;;14.82;nan;100522.34;5033399;28;20030;-61
2022/09/14 03:54:41;;;;;;;7.10;2.60;;;;;;;15.10;nan;100583.50;5033019;28;20048;-62
2022/09/14 03:57:06;;;;;;;2.78;2.20;;;;;;;14.88;nan;100526.44;5033368;28;20061;-61
2022/09/14 03:59:32;;;;;;;4.82;2.10;;;;;;;14.69;nan;100505.38;5033246;28;20084;-61
2022/09/14 04:01:58;;;;;;;6.03;2.08;;;;;;;14.84;nan;100528.41;5033362;28;20544;-60
2022/09/14 04:04:24;;;;;;;5.05;2.08;;;;;;;15.13;nan;100588.63;5033171;28;20099;-62
2022/09/14 04:06:49;;;;;;;2.65;1.70;;;;;;;15.13;nan;100577.16;5033038;28;20045;-61
2022/09/14 04:09:14;;;;;;;7.05;2.03;;;;;;;15.02;nan;100564.50;5031646;28;20387;-62
2022/09/14 04:11:39;;;;;;;5.47;2.10;;;;;;;15.04;nan;100567.91;5032645;28;20081;-61
2022/09/14 04:14:06;;;;;;;4.82;1.92;;;;;;;15.13;nan;100591.28;5032764;28;20076;-63
2022/09/14 04:16:31;;;;;;;6.63;2.08;;;;;;;15.16;nan;100599.06;5033064;28;20397;-61
2022/09/14 04:18:57;;;;;;;3.92;2.28;;;;;;;15.15;nan;100597.34;5033000;28;20056;-63
2022/09/14 04:21:23;;;;;;;4.03;1.80;;;;;;;15.00;nan;100566.34;5032853;28;20037;-61
2022/09/14 04:23:53;;;;;;;7.93;2.28;;;;;;;14.51;nan;100486.03;5032634;28;20088;-60
2022/09/14 04:26:20;;;;;;;4.65;1.95;;;;;;;15.08;nan;100587.16;5032653;28;20481;-61
2022/09/14 04:28:45;;;;;;;3.55;1.70;;;;;;;14.72;nan;100533.50;5032713;28;20045;-62
2022/09/14 04:31:12;;;;;;;4.40;2.22;;;;;;;14.81;nan;100540.97;5031533;28;20033;-61
2022/09/14 04:33:40;;;;;;;3.65;1.50;;;;;;;15.08;nan;100587.16;5032590;28;20033;-62
2022/09/14 04:36:07;;;;;;;4.63;1.75;;;;;;;15.09;nan;100579.13;5047975;28;20503;-62
2022/09/14 04:38:34;;;;;;;6.88;1.88;;;;;;;15.11;nan;100593.16;5032419;28;20035;-62
2022/09/14 04:41:02;;;;;;;3.75;1.40;;;;;;;15.12;nan;100575.44;5047913;28;20056;-61
2022/09/14 04:43:27;;;;;;;4.70;1.80;;;;;;;15.12;nan;100581.59;5032491;28;20033;-61
2022/09/14 04:45:53;;;;;;;3.88;1.83;;;;;;;15.11;nan;100577.25;5032448;28;20449;-61
2022/09/14 04:48:18;;;;;;;6.03;1.88;;;;;;;15.10;nan;100580.84;5032487;28;20068;-60
2022/09/14 04:50:44;;;;;;;6.32;1.50;;;;;;;15.08;nan;100572.13;5032752;28;20075;-61
2022/09/14 04:53:10;;;;;;;3.10;1.45;;;;;;;15.03;nan;100578.63;5032189;28;20038;-62
2022/09/14 04:55:35;;;;;;;7.38;1.48;;;;;;;15.09;nan;100575.63;5032532;28;20026;-61
2022/09/14 04:58:01;;;;;;;3.88;1.75;;;;;;;14.77;nan;100520.88;5047757;28;20030;-60
2022/09/14 05:00:26;;;;;;;3.72;1.52;;;;;;;15.04;nan;100575.00;5030970;28;20033;-61
2022/09/14 05:02:52;;;;;;;6.38;1.58;;;;;;;14.70;nan;100520.34;5032352;28;20098;-62
2022/09/14 05:05:17;;;;;;;8.07;1.65;;;;;;;14.67;nan;100511.72;5031107;28;20094;-62
2022/09/14 05:07:42;;;;;;;2.00;1.10;;;;;;;14.95;nan;100563.13;5047491;28;20138;-62
2022/09/14 05:10:08;;;;;;;6.35;1.80;;;;;;;14.93;nan;100559.69;5032045;28;20053;-60
2022/09/14 05:12:33;;;;;;;4.20;1.52;;;;;;;14.91;nan;100556.28;5031826;28;20052;-63
2022/09/14 05:14:58;;;;;;;3.58;1.45;;;;;;;14.84;nan;100546.09;5032291;28;20030;-63
2022/09/14 05:17:24;;;;;;;7.55;1.98;;;;;;;14.75;nan;100530.69;5047498;28;20048;-60
2022/09/14 05:19:49;;;;;;;1.85;1.10;;;;;;;14.56;nan;100507.84;5032132;28;20352;-61
2022/09/14 05:22:14;;;;;;;4.45;1.55;;;;;;;14.80;nan;100555.16;5032001;28;20053;-62
2022/09/14 05:24:40;;;;;;;8.38;2.22;;;;;;;14.82;nan;100558.56;5047698;28;20037;-61
2022/09/14 05:27:05;;;;;;;7.35;1.70;;;;;;;14.84;nan;100565.50;5032082;28;20116;-61
2022/09/14 05:29:31;;;;;;;4.10;1.50;;;;;;;14.55;nan;100521.16;5031685;28;20038;-62
2022/09/14 05:31:56;;;;;;;5.90;2.13;;;;;;;14.85;nan;100561.06;5031928;28;20040;-61
2022/09/14 05:34:22;;;;;;;2.92;1.88;;;;;;;14.83;nan;100563.78;5030663;28;20462;-61
2022/09/14 05:36:47;;;;;;;6.35;1.63;;;;;;;14.67;nan;100527.59;5047224;28;20120;-62
2022/09/14 05:39:12;;;;;;;5.15;1.77;;;;;;;14.80;nan;100550.69;5030955;28;20033;-61
2022/09/14 05:41:38;;;;;;;5.35;1.80;;;;;;;14.56;nan;100499.06;5047393;28;20038;-61
2022/09/14 05:44:04;;;;;;;9.18;1.92;;;;;;;14.56;nan;100496.41;5031578;28;20048;-60
2022/09/14 05:46:29;;;;;;;3.67;1.60;;;;;;;14.62;nan;100510.16;5047045;28;20507;-61
2022/09/14 05:48:55;;;;;;;5.28;1.92;;;;;;;14.66;nan;100521.44;5031812;28;20029;-62
2022/09/14 05:51:21;;;;;;;4.90;1.80;;;;;;;14.69;nan;100521.28;5031657;28;20381;-61
2022/09/14 05:53:49;;;;;;;3.95;1.55;;;;;;;14.70;nan;100516.84;5031862;28;20041;-62
2022/09/14 05:56:14;;;;;;;3.92;1.65;;;;;;;14.99;nan;100572.63;5030468;28;20037;-62
2022/09/14 05:58:41;;;;;;;4.10;2.13;;;;;;;14.90;nan;100543.09;5031548;28;20374;-62
2022/09/14 06:01:16;;;;;;;6.13;1.95;;;;;;;15.07;nan;100572.19;5047192;28;20435;-62
2022/09/14 06:03:42;;;;;;;8.98;2.95;;;;;;;14.79;nan;100519.84;5046901;28;20026;-61
2022/09/14 06:06:09;;;;;;;4.60;1.83;;;;;;;14.83;nan;100525.81;5031821;28;20068;-61
2022/09/14 06:08:35;;;;;;;5.13;1.90;;;;;;;15.07;nan;100574.84;5046607;28;20037;-63
2022/09/14 06:11:14;;;;;;;6.95;2.13;;;;;;;15.01;nan;100568.09;5028800;28;20510;-61
2022/09/14 06:13:40;;;;;;;4.40;1.90;;;;;;;14.95;nan;100554.31;5035114;28;20044;-61
2022/09/14 06:16:08;;;;;;;9.55;2.20;;;;;;;14.87;nan;100552.09;5053375;28;20033;-62
2022/09/14 06:18:34;;;;;;;4.88;2.72;;;;;;;14.77;nan;100529.66;5054771;28;20048;-63
2022/09/14 06:21:00;;;;;;;7.13;1.80;;;;;;;15.07;nan;100561.59;5054362;28;20435;-63
2022/09/14 06:23:29;;;;;;;8.90;2.45;;;;;;;15.08;nan;100558.88;5053014;28;20124;-62
2022/09/14 06:25:55;;;;;;;9.80;2.33;;;;;;;15.09;nan;100544.66;5054383;28;20499;-62
2022/09/14 06:28:22;;;;;;;7.07;2.22;;;;;;;15.14;nan;100549.72;5053864;28;20037;-61
2022/09/14 06:30:48;;;;;;;3.65;1.90;;;;;;;15.11;nan;100541.94;5053926;28;20037;-63
2022/09/14 06:33:14;;;;;;;7.75;2.20;;;;;;;15.21;nan;100551.06;5054937;28;20033;-62
2022/09/14 06:35:40;;;;;;;3.47;1.83;;;;;;;15.30;nan;100549.69;5054737;28;20040;-62
2022/09/14 06:38:06;;;;;;;4.32;1.95;;;;;;;15.35;nan;100551.19;5053564;28;20480;-63
2022/09/14 06:40:31;;;;;;;5.13;2.22;;;;;;;15.03;nan;100491.97;5053352;28;20048;-61
2022/09/14 06:43:01;;;;;;;7.15;2.20;;;;;;;15.12;nan;100501.22;5054678;28;20045;-63
2022/09/14 06:45:29;;;;;;;6.72;2.47;;;;;;;15.49;nan;100556.56;5054248;28;20041;-63
2022/09/14 06:47:55;;;;;;;5.03;2.60;;;;;;;15.52;nan;100551.09;5054740;28;21025;-62
2022/09/14 06:50:21;;;;;;;10.38;2.17;;;;;;;15.56;nan;100544.66;5053389;28;20075;-62
2022/09/14 06:52:46;;;;;;;3.97;1.83;;;;;;;15.38;nan;100503.22;5053278;28;20064;-63
2022/09/14 06:55:11;;;;;;;8.70;2.00;;;;;;;15.47;nan;100516.00;5052117;28;20036;-61
2022/09/14 06:57:36;;;;;;;7.63;2.38;;;;;;;15.70;nan;100554.50;5054223;28;20055;-61
2022/09/14 07:00:03;;;;;;;4.32;1.95;;;;;;;15.71;nan;100551.75;5053081;28;20851;-63
2022/09/14 07:02:28;;;;;;;4.65;2.28;;;;;;;15.70;nan;100554.50;5053325;28;20033;-62
2022/09/14 07:04:54;;;;;;;2.92;2.22;;;;;;;15.36;nan;100499.81;5053522;28;20404;-60
2022/09/14 07:07:19;;;;;;;8.45;2.20;;;;;;;15.71;nan;100558.84;5053175;28;20037;-61
2022/09/14 07:09:45;;;;;;;5.85;2.00;;;;;;;15.70;nan;100568.59;5051624;28;20487;-60
2022/09/14 07:12:11;;;;;;;3.63;2.08;;;;;;;15.62;nan;100556.72;5053092;28;20048;-63
2022/09/14 07:14:37;;;;;;;6.72;1.90;;;;;;;15.62;nan;100559.38;5053132;28;20470;-63
2022/09/14 07:17:03;;;;;;;6.55;1.88;;;;;;;15.52;nan;100540.50;5053082;28;20549;-63
2022/09/14 07:19:28;;;;;;;5.03;1.88;;;;;;;15.60;nan;100542.69;5052049;28;20415;-62
2022/09/14 07:21:54;;;;;;;4.97;2.30;;;;;;;15.36;nan;100512.22;5053108;28;20055;-61
2022/09/14 07:24:19;;;;;;;8.77;2.78;;;;;;;15.59;nan;100552.44;5053119;28;20572;-62
2022/09/14 07:26:45;;;;;;;6.80;2.20;;;;;;;15.63;nan;100563.75;5052878;28;20025;-63
2022/09/14 07:29:13;;;;;;;3.33;2.25;;;;;;;15.59;nan;100557.75;5052430;28;20044;-60
2022/09/14 07:31:41;;;;;;;5.00;1.95;;;;;;;15.68;nan;100566.97;5052831;28;20461;-61
2022/09/14 07:34:07;;;;;;;3.05;2.17;;;;;;;15.20;nan;100480.44;5052835;28;20037;-65
2022/09/14 07:36:34;;;;;;;12.65;2.80;;;;;;;15.53;nan;100542.19;5052572;28;20039;-63
2022/09/14 07:39:00;;;;;;;8.32;2.47;;;;;;;15.56;nan;100559.72;5052954;28;20086;-65
2022/09/14 07:41:27;;;;;;;6.60;2.40;;;;;;;15.71;nan;100580.06;5052598;28;20419;-60
2022/09/14 07:43:55;;;;;;;9.68;3.13;;;;;;;15.80;nan;100576.88;5051133;28;20400;-63
2022/09/14 07:46:21;;;;;;;9.90;2.85;;;;;;;15.70;nan;100557.97;5052857;28;20086;-61
2022/09/14 07:48:47;;;;;;;6.18;2.55;;;;;;;15.77;nan;100563.78;5051316;28;20118;-62
2022/09/14 07:51:13;;;;;;;6.70;2.50;;;;;;;15.71;nan;100550.88;5052538;28;20045;-61
2022/09/14 07:53:44;;;;;;;8.55;3.00;;;;;;;15.82;nan;100545.78;5052052;28;20041;-61
2022/09/14 07:56:11;;;;;;;10.65;3.30;;;;;;;15.89;nan;100533.03;5051001;28;20036;-65
2022/09/14 07:58:36;;;;;;;5.18;2.20;;;;;;;15.73;nan;100496.75;5052153;28;20131;-64
2022/09/14 08:01:07;;;;;;;7.50;2.63;;;;;;;15.69;nan;100507.66;5052025;28;20588;-63
2022/09/14 08:03:35;;;;;;;7.03;2.65;;;;;;;15.80;nan;100520.28;5051077;28;20123;-63
2022/09/14 08:06:06;;;;;;;5.63;2.50;;;;;;;15.81;nan;100511.41;5034504;28;20104;-61
2022/09/14 08:08:34;;;;;;;9.57;3.00;;;;;;;15.89;nan;100514.44;5050540;28;20131;-62
2022/09/14 08:11:18;;;;;;;5.35;2.40;;;;;;;16.13;nan;100552.81;5052031;28;20072;-63
2022/09/14 08:13:54;;;;;;;4.78;2.92;;;;;;;16.25;nan;100554.75;5044408;28;20042;-65
2022/09/14 08:16:20;;;;;;;7.47;2.83;;;;;;;16.33;nan;100549.81;5033779;28;20045;-61
2022/09/14 08:18:47;;;;;;;7.05;2.95;;;;;;;16.12;nan;100488.22;5037346;28;20387;-62
2022/09/14 08:21:16;;;;;;;3.20;2.60;;;;;;;16.52;nan;100550.38;5040835;28;20033;-63
2022/09/14 08:23:42;;;;;;;6.35;2.58;;;;;;;16.36;nan;100524.88;5047264;28;20032;-63
2022/09/14 08:26:17;;;;;;;6.03;2.75;;;;;;;16.57;nan;100560.78;5052516;28;20036;-63
2022/09/14 08:28:43;;;;;;;5.07;2.35;;;;;;;16.40;nan;100500.69;5052544;28;20039;-62
2022/09/14 08:31:11;;;;;;;5.80;2.50;;;;;;;16.78;nan;100548.84;5051311;28;20040;-64
2022/09/14 08:33:38;;;;;;;6.13;2.45;;;;;;;16.93;nan;100550.50;5051123;28;20037;-62
2022/09/14 08:36:06;;;;;;;4.22;2.08;;;;;;;16.98;nan;100553.75;5051833;28;20040;-61
2022/09/14 08:38:31;;;;;;;4.05;2.10;;;;;;;17.01;nan;100571.31;5051006;28;20389;-61
2022/09/14 08:40:58;;;;;;;7.15;2.28;;;;;;;16.74;nan;100521.59;5052527;28;20032;-62
2022/09/14 08:43:24;;;;;;;6.57;2.67;;;;;;;16.93;nan;100542.53;5067744;28;20045;-64
2022/09/14 08:45:52;;;;;;;6.20;2.55;;;;;;;17.00;nan;100543.88;5067560;28;20060;-63
2022/09/14 08:48:34;;;;;;;6.93;3.28;;;;;;;16.99;nan;100562.59;5032682;28;20165;-61
2022/09/14 08:50:59;;;;;;;7.18;2.90;;;;;;;16.96;nan;100557.47;5033300;28;20033;-64
2022/09/14 08:53:25;;;;;;;6.35;3.17;;;;;;;16.88;nan;100552.63;5041546;28;20033;-62
2022/09/14 08:55:55;;;;;;;8.60;2.45;;;;;;;16.74;nan;100542.00;5059030;28;20424;-62
2022/09/14 08:58:55;;;;;;;5.13;2.43;;;;;;;16.87;nan;100550.91;5042966;28;20064;-62
2022/09/14 09:01:29;;;;;;;4.82;2.10;;;;;;;16.81;nan;100538.84;5035924;28;20025;-63
2022/09/14 09:04:06;;;;;;;5.38;2.10;;;;;;;16.58;nan;100525.31;5050529;28;20036;-62
2022/09/14 09:06:37;;;;;;;6.60;2.60;;;;;;;16.77;nan;100563.94;5045253;28;20139;-63
2022/09/14 09:09:09;;;;;;;6.43;2.55;;;;;;;16.50;nan;100539.00;5034977;28;20136;-61
2022/09/14 09:11:45;;;;;;;8.05;2.55;;;;;;;16.64;nan;100565.63;5049978;28;20049;-62
2022/09/14 09:14:21;;;;;;;5.85;2.00;;;;;;;16.43;nan;100524.41;5038959;28;20049;-62
2022/09/14 09:16:50;;;;;;;3.63;2.05;;;;;;;16.50;nan;100540.81;5047429;28;20039;-62
2022/09/14 09:19:20;;;;;;;3.70;1.60;;;;;;;16.68;nan;100563.63;5050155;28;20028;-64
2022/09/14 09:21:47;;;;;;;8.15;1.95;;;;;;;16.71;nan;100574.94;5062470;28;20543;-60
2022/09/14 09:24:35;;;;;;;4.00;1.85;;;;;;;16.83;nan;100579.50;5055494;28;20464;-65
2022/09/14 09:27:00;;;;;;;5.32;1.70;;;;;;;16.59;nan;100517.22;5046864;28;20044;-60
2022/09/14 09:29:26;;;;;;;7.45;1.60;;;;;;;16.97;nan;100559.16;5036333;28;20031;-63
2022/09/14 09:31:53;;;;;;;5.25;1.55;;;;;;;17.04;nan;100558.69;5036135;28;20034;-64
2022/09/14 09:34:26;;;;;;;4.15;1.88;;;;;;;16.75;nan;100506.50;5031974;28;20099;-60
2022/09/14 09:36:51;;;;;;;3.58;1.90;;;;;;;17.07;nan;100555.84;5043022;28;20108;-61
2022/09/14 09:39:17;;;;;;;6.10;1.80;;;;;;;17.10;nan;100558.31;5046658;28;20109;-65
2022/09/14 09:41:50;;;;;;;6.47;1.30;;;;;;;16.85;nan;100520.91;5036254;28;20037;-64
2022/09/14 09:44:15;;;;;;;6.15;2.00;;;;;;;16.80;nan;100499.09;5039677;28;20504;-64
2022/09/14 09:46:47;;;;;;;4.30;2.13;;;;;;;16.90;nan;100513.47;5029690;28;20068;-60
2022/09/14 09:49:30;;;;;;;4.20;1.48;;;;;;;17.17;nan;100546.31;5032229;28;20037;-59
2022/09/14 09:52:12;;;;;;;5.60;2.20;;;;;;;16.88;nan;100518.06;5034559;28;20534;-61
2022/09/14 09:54:37;;;;;;;;;;;;;;;17.22;nan;100546.84;5034735;28;20112;-62
2022/09/14 09:57:05;;;;;;;5.68;1.80;;;;;;;17.02;nan;100510.03;5032923;28;19924;-61
2022/09/14 09:59:39;;;;;;;4.22;1.80;;;;;;;17.26;nan;100559.00;5033428;28;20040;-65
2022/09/14 10:02:20;;;;;;;7.15;1.60;;;;;;;16.98;nan;100523.66;5033198;28;20030;-62
2022/09/14 10:05:08;;;;;;;5.15;1.77;;;;;;;17.25;nan;100556.47;5032975;28;20029;-62
2022/09/14 10:07:37;;;;;;;5.00;1.42;;;;;;;17.16;nan;100514.50;5021422;28;20037;-63
2022/09/14 10:10:06;;;;;;;5.13;1.65;;;;;;;17.34;nan;100554.03;5032765;28;20040;-64
2022/09/14 10:12:31;;;;;;;6.47;1.60;;;;;;;17.42;nan;100557.06;5033017;28;20037;-63
2022/09/14 10:15:21;;;;;;;5.97;1.40;;;;;;;17.57;nan;100568.53;5034169;28;20045;-61
2022/09/14 10:17:56;;;;;;;3.45;1.02;;;;;;;17.59;nan;100571.13;5023783;28;20045;-64
2022/09/14 10:20:23;;;;;;;5.63;1.55;;;;;;;17.25;nan;100522.72;5033773;28;20508;-63
2022/09/14 10:22:48;;;;;;;4.60;1.30;;;;;;;17.56;nan;100566.00;5032991;28;20040;-65
2022/09/14 10:25:14;;;;;;;3.00;1.25;;;;;;;17.54;nan;100579.38;5034133;28;20045;-63
2022/09/14 10:27:54;;;;;;;8.73;1.80;;;;;;;17.68;nan;100568.72;5033692;28;20443;-63
2022/09/14 10:30:37;;;;;;;2.95;1.60;;;;;;;17.53;nan;100539.56;5033100;28;20468;-65
2022/09/14 10:33:05;;;;;;;4.60;1.40;;;;;;;17.69;nan;100556.22;5033943;28;20033;-63
2022/09/14 10:35:46;;;;;;;2.85;1.20;;;;;;;17.88;nan;100570.91;5033661;28;20404;-62
2022/09/14 10:38:39;;;;;;;3.65;1.77;;;;;;;17.96;nan;100557.94;5033653;28;20508;-62
2022/09/14 10:41:30;;;;;;;4.45;1.60;;;;;;;18.08;nan;100566.03;5032510;28;20029;-62
2022/09/14 10:44:18;;;;;;;4.93;1.55;;;;;;;18.22;nan;100561.47;5032402;28;20116;-63
2022/09/14 10:47:17;;;;;;;7.97;1.48;;;;;;;18.26;nan;100560.31;5033501;28;20029;-65
2022/09/14 10:50:22;;;;;;;4.50;1.42;;;;;;;17.94;nan;100521.72;5033473;28;20033;-63
2022/09/14 10:53:09;;;;;;;5.25;2.42;;;;;;;18.10;nan;100518.84;5033256;28;20078;-62
2022/09/14 10:56:00;;;;;;;5.55;1.05;;;;;;;18.42;nan;100558.31;5033339;28;20030;-64
2022/09/14 10:59:00;;;;;;;4.45;1.00;;;;;;;18.61;nan;100560.59;5031821;28;20062;-62
2022/09/14 11:01:47;;;;;;;6.32;1.63;;;;;;;18.90;nan;100563.88;5032398;28;20053;-64
2022/09/14 11:04:23;;;;;;;3.92;1.55;;;;;;;19.25;nan;100518.63;5033388;28;20369;-62
2022/09/14 11:07:27;;;;;;;6.72;1.42;;;;;;;20.24;nan;100574.34;5033217;28;20388;-63
2022/09/14 11:10:04;;;;;;;3.45;1.10;;;;;;;20.47;nan;100505.75;5016898;28;20554;-62
2022/09/14 11:12:35;;;;;;;4.40;1.92;;;;;;;21.50;nan;100578.56;5032661;28;20029;-62
2022/09/14 11:15:10;;;;;;;2.50;1.17;;;;;;;22.34;nan;100581.31;5033151;28;20038;-63
2022/09/14 11:17:54;;;;;;;2.97;1.30;;;;;;;22.67;nan;100593.69;5031725;28;20073;-62
2022/09/14 11:20:52;;;;;;;5.45;1.10;;;;;;;22.86;nan;100555.34;5032741;28;20037;-63
2022/09/14 11:23:23;;;;;;;4.47;1.00;;;;;;;22.83;nan;100610.16;5032930;28;20044;-63
2022/09/14 11:25:51;;;;;;;;;;;;;;;22.37;nan;100597.13;5033183;28;20550;-62
2022/09/14 11:28:23;;;;;;;2.65;1.23;;;;;;;21.67;nan;100556.59;5033005;28;19913;-62
2022/09/14 11:30:53;;;;;;;3.47;1.17;;;;;;;21.95;nan;100590.00;5031443;28;20091;-64
2022/09/14 11:33:25;;;;;;;3.78;0.93;;;;;;;22.34;nan;100593.88;5031434;28;20034;-63
2022/09/14 11:35:56;;;;;;;2.53;1.23;;;;;;;23.59;nan;100584.59;5032445;28;20037;-62
2022/09/14 11:38:27;;;;;;;;;;;;;;;24.39;nan;100605.88;5033015;28;20080;-63
2022/09/14 11:41:08;;;;;;;2.75;0.70;;;;;;;25.04;nan;100616.66;5032419;28;20295;-63
2022/09/14 11:43:44;;;;;;;3.55;0.77;;;;;;;25.41;nan;100607.69;5031282;28;20050;-63
2022/09/14 11:46:12;;;;;;;6.32;1.00;;;;;;;25.26;nan;100601.09;5032522;28;20037;-64
2022/09/14 11:48:40;;;;;;;1.38;0.70;;;;;;;25.66;nan;100617.78;5031996;28;20068;-64
2022/09/14 11:51:10;;;;;;;2.33;0.82;;;;;;;26.26;nan;100603.63;5032255;28;20029;-64
2022/09/14 11:53:36;;;;;;;2.70;0.80;;;;;;;26.68;nan;100571.34;5032235;28;20480;-64
2022/09/14 11:56:01;;;;;;;3.72;0.80;;;;;;;27.09;nan;100553.53;5032181;28;20092;-64